Event-Kalender
Terminkalender Drucken Email help
Jahresansicht Monatsansicht Wochenansicht Heute Suche Zum ausgwählten Monat wechseln
Termine für
Dienstag, 10. Oktober 2017



JEvents v1.5.5e   Copyright © 2006-2011

Zufallsbild

Aktuelle Termine

Mo Di Mi Do Fr Sa So
25 26 27 28 29 30 1
2 3 4 5 6 7 8
9 10 11 12 13 14 15
16 17 18 19 20 21 22
23 24 25 26 27 28 29
30 31 1 2 3 4 5

Pilotenwetter

[source: ADDS]
METAR
EDDH 241220Z 26007KT 230V290 9999 -RA FEW015 SCT032 BKN080 08/05 Q1007 NOSIG =
TAF
TAF EDDH 241100Z 2412/2518 23004KT 9999 SCT030 BECMG 2423/2502 3000 BR TEMPO 2502/2510 1200 BCFG PROB30 TEMPO 2502/2509 0600 FG BKN001 =